createdAt,value
2023-04-02T00:01:51.987Z,9.30
2023-04-02T00:06:54.848Z,9.30
2023-04-02T00:11:56.890Z,9.20
2023-04-02T00:16:59.729Z,9.20
2023-04-02T00:22:02.135Z,9.30
2023-04-02T00:27:03.759Z,9.30
2023-04-02T00:32:05.652Z,9.20
2023-04-02T00:37:07.320Z,9.20
2023-04-02T00:42:11.454Z,9.20
2023-04-02T00:47:13.056Z,9.10
2023-04-02T00:52:17.006Z,9.00
2023-04-02T00:57:23.254Z,9.10
2023-04-02T01:02:28.205Z,9.10
2023-04-02T01:07:48.851Z,9.20
2023-04-02T01:12:50.420Z,9.20
2023-04-02T01:17:54.506Z,9.20
2023-04-02T01:22:56.308Z,9.20
2023-04-02T01:28:01.172Z,9.20
2023-04-02T01:33:03.547Z,9.20
2023-04-02T01:38:11.753Z,9.20
2023-04-02T01:43:32.125Z,9.20
2023-04-02T01:48:33.907Z,9.20
2023-04-02T01:53:35.624Z,9.20
2023-04-02T01:58:38.054Z,9.20
2023-04-02T02:03:41.145Z,9.20
2023-04-02T02:08:48.816Z,9.20
2023-04-02T02:13:53.176Z,9.20
2023-04-02T02:18:56.317Z,9.20
2023-04-02T02:23:58.725Z,9.30
2023-04-02T02:29:00.985Z,9.20
2023-04-02T02:34:12.885Z,9.30
2023-04-02T02:39:34.232Z,9.30
2023-04-02T02:44:37.197Z,9.30
2023-04-02T02:49:47.039Z,9.30
2023-04-02T02:55:08.884Z,9.30
2023-04-02T03:00:13.700Z,9.30
2023-04-02T03:05:21.075Z,9.40
2023-04-02T03:10:41.379Z,9.30
2023-04-02T03:16:01.971Z,9.30
2023-04-02T03:21:12.683Z,9.30
2023-04-02T03:26:17.901Z,9.40
2023-04-02T03:31:23.515Z,9.30
2023-04-02T03:36:28.562Z,9.30
2023-04-02T03:41:49.121Z,9.30
2023-04-02T03:46:57.584Z,9.20
2023-04-02T03:52:02.682Z,9.20
2023-04-02T03:57:05.353Z,9.30
2023-04-02T04:02:26.210Z,9.40
2023-04-02T04:07:39.333Z,9.30
2023-04-02T04:12:43.541Z,9.30
2023-04-02T04:18:10.459Z,9.30
2023-04-02T04:23:19.812Z,9.30
2023-04-02T04:28:29.278Z,9.20
2023-04-02T04:33:34.631Z,9.20
2023-04-02T04:38:39.109Z,9.20
2023-04-02T04:43:40.713Z,9.20
2023-04-02T04:48:52.977Z,9.10
2023-04-02T04:53:55.702Z,9.10
2023-04-02T04:59:02.338Z,9.00
2023-04-02T05:04:18.084Z,8.90
2023-04-02T05:09:19.805Z,8.80
2023-04-02T05:14:47.703Z,9.00
2023-04-02T05:19:53.298Z,8.80
2023-04-02T05:25:13.229Z,8.80
2023-04-02T05:30:21.103Z,8.60
2023-04-02T05:35:26.627Z,8.60
2023-04-02T05:40:32.658Z,8.60
2023-04-02T05:45:36.301Z,8.50
2023-04-02T05:50:43.045Z,8.40
2023-04-02T05:55:53.513Z,8.30
2023-04-02T06:01:01.496Z,8.20
2023-04-02T06:06:06.326Z,8.10
2023-04-02T06:11:10.516Z,8.00
2023-04-02T06:16:14.590Z,8.00
2023-04-02T06:21:17.455Z,8.10
2023-04-02T06:26:28.777Z,8.10
2023-04-02T06:31:50.667Z,8.00
2023-04-02T06:36:56.021Z,7.90
2023-04-02T06:42:00.746Z,7.90
2023-04-02T06:47:04.498Z,7.80
2023-04-02T06:52:11.062Z,7.70
2023-04-02T06:57:13.240Z,7.70
2023-04-02T07:02:17.844Z,7.70
2023-04-02T07:07:19.411Z,7.60
2023-04-02T07:12:25.006Z,7.60
2023-04-02T07:17:26.599Z,7.60
2023-04-02T07:22:28.440Z,7.60
2023-04-02T07:27:30.506Z,7.60
2023-04-02T07:32:32.173Z,7.50
2023-04-02T07:37:33.742Z,7.50
2023-04-02T07:42:35.683Z,7.50
2023-04-02T07:47:37.297Z,7.50
2023-04-02T07:52:42.594Z,7.50
2023-04-02T07:57:55.088Z,7.60
2023-04-02T08:02:56.838Z,7.50
2023-04-02T08:07:58.667Z,7.50
2023-04-02T08:13:00.370Z,7.60
2023-04-02T08:18:02.099Z,7.50
2023-04-02T08:23:04.329Z,7.50
2023-04-02T08:28:06.140Z,7.40
2023-04-02T08:33:08.301Z,7.70
2023-04-02T08:38:14.685Z,7.60
2023-04-02T08:43:42.181Z,7.60
2023-04-02T08:48:44.804Z,7.70
2023-04-02T08:53:46.735Z,7.80
2023-04-02T08:58:50.032Z,7.90
2023-04-02T09:03:53.912Z,7.70
2023-04-02T09:08:56.957Z,7.60
2023-04-02T09:14:00.301Z,7.50
2023-04-02T09:19:02.367Z,7.50
2023-04-02T09:24:05.321Z,7.50
2023-04-02T09:29:13.377Z,7.60
2023-04-02T09:34:32.318Z,7.60
2023-04-02T09:39:35.487Z,7.60
2023-04-02T09:44:37.190Z,7.80
2023-04-02T09:49:39.670Z,7.70
2023-04-02T09:54:44.365Z,7.70
2023-04-02T09:59:46.122Z,7.70
2023-04-02T10:04:49.458Z,7.70
2023-04-02T10:09:57.510Z,7.70
2023-04-02T10:15:00.508Z,7.80
2023-04-02T10:20:19.950Z,7.80
2023-04-02T10:25:24.673Z,7.80
2023-04-02T10:30:39.072Z,7.90
2023-04-02T10:35:46.840Z,7.80
2023-04-02T10:40:48.429Z,7.80
2023-04-02T10:45:56.633Z,7.70
2023-04-02T10:51:05.999Z,7.80
2023-04-02T10:56:09.438Z,7.70
2023-04-02T11:01:19.753Z,7.90
2023-04-02T11:06:25.526Z,7.60
2023-04-02T11:11:29.762Z,7.50
2023-04-02T11:16:31.769Z,7.60
2023-04-02T11:21:44.896Z,7.50
2023-04-02T11:26:53.629Z,7.70
2023-04-02T11:32:13.298Z,7.80
2023-04-02T11:37:34.024Z,8.10
2023-04-02T11:42:36.634Z,8.10
2023-04-02T11:47:38.273Z,8.10
2023-04-02T11:52:46.217Z,8.10
2023-04-02T11:58:11.014Z,8.20
2023-04-02T12:03:32.212Z,8.30
2023-04-02T12:08:47.452Z,8.30
2023-04-02T12:13:58.770Z,8.20
2023-04-02T12:19:00.686Z,8.10
2023-04-02T12:24:03.237Z,8.20
2023-04-02T12:29:21.918Z,8.20
2023-04-02T12:34:25.080Z,8.30
2023-04-02T12:39:28.518Z,8.40
2023-04-02T12:44:30.545Z,8.30
2023-04-02T12:49:38.929Z,8.20
2023-04-02T12:54:49.598Z,8.20
2023-04-02T12:59:53.741Z,8.10
2023-04-02T13:04:56.496Z,8.10
2023-04-02T13:10:02.354Z,8.00
2023-04-02T13:15:05.180Z,8.00
2023-04-02T13:20:25.976Z,8.20
2023-04-02T13:25:29.185Z,8.30
2023-04-02T13:30:31.115Z,8.30
2023-04-02T13:35:32.771Z,8.40
2023-04-02T13:40:35.575Z,8.40
2023-04-02T13:45:38.490Z,8.50
2023-04-02T13:50:40.597Z,8.40
2023-04-02T13:55:42.839Z,8.40
2023-04-02T14:00:44.747Z,8.40
2023-04-02T14:06:05.008Z,8.40
2023-04-02T14:11:21.404Z,8.40
2023-04-02T14:16:22.990Z,8.30
2023-04-02T14:21:36.769Z,8.30
2023-04-02T14:26:57.015Z,8.40
2023-04-02T14:32:01.700Z,8.30
2023-04-02T14:37:13.137Z,8.30
2023-04-02T14:42:18.327Z,8.20
2023-04-02T14:47:29.457Z,8.10
2023-04-02T14:52:33.342Z,8.10
2023-04-02T14:57:37.048Z,8.10
2023-04-02T15:02:55.829Z,8.10
2023-04-02T15:08:06.535Z,8.10
2023-04-02T15:13:11.700Z,8.10
2023-04-02T15:18:14.298Z,8.00
2023-04-02T15:23:29.104Z,8.00
2023-04-02T15:28:48.269Z,8.00
2023-04-02T15:33:52.930Z,7.90
2023-04-02T15:39:01.001Z,7.90
2023-04-02T15:44:05.663Z,7.80
2023-04-02T15:49:26.273Z,7.80
2023-04-02T15:54:30.870Z,7.70
2023-04-02T15:59:51.534Z,7.70
2023-04-02T16:05:12.066Z,7.70
2023-04-02T16:10:37.934Z,7.70
2023-04-02T16:15:44.887Z,7.60
2023-04-02T16:20:48.234Z,7.50
2023-04-02T16:25:59.114Z,7.60
2023-04-02T16:31:19.515Z,7.40
2023-04-02T16:36:26.124Z,7.40
2023-04-02T16:41:46.783Z,7.30
2023-04-02T16:46:48.561Z,7.20
2023-04-02T16:52:03.584Z,7.20
2023-04-02T16:57:05.138Z,7.10
2023-04-02T17:02:06.674Z,7.10
2023-04-02T17:07:34.800Z,7.00
2023-04-02T17:12:43.955Z,6.90
2023-04-02T17:17:45.657Z,6.80
2023-04-02T17:22:47.706Z,6.70
2023-04-02T17:27:52.228Z,6.70
2023-04-02T17:32:53.878Z,6.60
2023-04-02T17:38:14.392Z,6.60
2023-04-02T17:43:35.055Z,6.50
2023-04-02T17:48:41.126Z,6.50
2023-04-02T17:53:51.826Z,6.50
2023-04-02T17:59:14.920Z,6.40
2023-04-02T18:04:35.118Z,6.40
2023-04-02T18:09:45.722Z,6.40
2023-04-02T18:14:47.314Z,6.40
2023-04-02T18:19:52.012Z,6.40
2023-04-02T18:25:18.460Z,6.40
2023-04-02T18:30:27.482Z,6.40
2023-04-02T18:35:39.495Z,6.40
2023-04-02T18:40:43.443Z,6.30
2023-04-02T18:46:05.187Z,6.30
2023-04-02T18:51:13.675Z,6.30
2023-04-02T18:56:17.754Z,6.30
2023-04-02T19:01:27.890Z,6.30
2023-04-02T19:06:36.661Z,6.30
2023-04-02T19:11:38.251Z,6.30
2023-04-02T19:16:42.974Z,6.30
2023-04-02T19:21:51.282Z,6.30
2023-04-02T19:27:04.459Z,6.30
2023-04-02T19:32:09.744Z,6.20
2023-04-02T19:37:29.826Z,6.20
2023-04-02T19:42:31.407Z,6.20
2023-04-02T19:47:32.993Z,6.20
2023-04-02T19:52:34.565Z,6.20
2023-04-02T19:57:36.446Z,6.10
2023-04-02T20:02:38.101Z,6.00
2023-04-02T20:07:40.134Z,6.00
2023-04-02T20:12:41.802Z,5.90
2023-04-02T20:17:43.548Z,5.90
2023-04-02T20:22:45.386Z,6.00
2023-04-02T20:27:46.960Z,5.90
2023-04-02T20:32:50.315Z,5.80
2023-04-02T20:37:52.026Z,5.90
2023-04-02T20:42:53.584Z,5.80
2023-04-02T20:47:55.268Z,5.80
2023-04-02T20:53:00.228Z,5.70
2023-04-02T20:58:02.550Z,5.70
2023-04-02T21:03:04.180Z,5.70
2023-04-02T21:08:05.891Z,5.70
2023-04-02T21:13:07.487Z,5.70
2023-04-02T21:18:09.097Z,5.70
2023-04-02T21:23:10.816Z,5.60
2023-04-02T21:28:12.401Z,5.60
2023-04-02T21:33:14.033Z,5.60
2023-04-02T21:38:15.627Z,5.60
2023-04-02T21:43:17.258Z,5.60
2023-04-02T21:48:18.885Z,5.60
2023-04-02T21:53:20.616Z,5.60
2023-04-02T21:58:22.185Z,5.70
2023-04-02T22:03:30.997Z,5.70
2023-04-02T22:08:34.701Z,5.60
2023-04-02T22:13:36.447Z,5.60
2023-04-02T22:18:38.689Z,5.50
2023-04-02T22:23:40.784Z,5.40
2023-04-02T22:28:42.508Z,5.30
2023-04-02T22:33:45.051Z,5.20
2023-04-02T22:38:46.759Z,5.10
2023-04-02T22:43:48.913Z,5.10
2023-04-02T22:48:50.770Z,5.00
2023-04-02T22:53:54.098Z,4.90
2023-04-02T22:58:55.803Z,4.90
2023-04-02T23:03:57.375Z,4.90
2023-04-02T23:08:58.968Z,4.90
2023-04-02T23:14:00.641Z,4.90
2023-04-02T23:19:02.320Z,4.90
2023-04-02T23:24:03.934Z,4.80
2023-04-02T23:29:06.428Z,4.80
2023-04-02T23:34:09.146Z,4.90
2023-04-02T23:39:11.953Z,4.90
2023-04-02T23:44:13.587Z,4.90
2023-04-02T23:49:15.535Z,4.90
2023-04-02T23:54:17.114Z,4.90
2023-04-02T23:59:18.691Z,4.90
